Time;durP1;ratioP1;P1;durP2;ratioP2;P2;SDS_P1;SDS_P2;PMS_P1;PMS_P2;Temp;Humidity;BMP_temperature;BMP_pressure;BME280_temperature;BME280_humidity;BME280_pressure;Samples;Min_cycle;Max_cycle;Signal;HPM_P1;HPM_P2
2021/10/29 00:02:11;;;;;;;140.22;66.35;;;;;;;1.77;77.27;95546.10;1727674;82;21772;-56
2021/10/29 00:04:38;;;;;;;151.72;68.50;;;;;;;1.72;77.36;95545.65;1717539;82;21506;-58
2021/10/29 00:07:05;;;;;;;133.63;64.50;;;;;;;1.70;77.65;95543.89;1718262;82;21451;-57
2021/10/29 00:09:32;;;;;;;151.78;62.93;;;;;;;1.69;77.54;95549.11;1730193;82;21455;-58
2021/10/29 00:12:00;;;;;;;135.18;61.77;;;;;;;1.67;77.56;95545.22;1720065;82;20971;-58
2021/10/29 00:14:30;;;;;;;143.72;63.68;;;;;;;1.66;77.47;95547.14;1730683;82;21138;-57
2021/10/29 00:16:56;;;;;;;138.22;65.25;;;;;;;1.60;77.51;95545.92;1731341;82;21175;-58
2021/10/29 00:19:23;;;;;;;147.00;64.12;;;;;;;1.60;77.61;95549.98;1724245;82;21065;-57
2021/10/29 00:21:49;;;;;;;145.77;67.03;;;;;;;1.60;77.58;95551.34;1726361;82;21424;-59
2021/10/29 00:24:16;;;;;;;146.98;66.72;;;;;;;1.57;77.73;95552.09;1722962;81;21019;-57
2021/10/29 00:26:44;;;;;;;148.13;67.45;;;;;;;1.61;77.80;95549.39;1725928;81;21102;-57
2021/10/29 00:29:12;;;;;;;128.60;61.98;;;;;;;1.63;77.68;95547.89;1694507;82;21038;-57
2021/10/29 00:31:39;;;;;;;146.05;62.25;;;;;;;1.63;77.55;95542.47;1707311;82;20994;-56
2021/10/29 00:34:06;;;;;;;117.25;53.55;;;;;;;1.57;77.40;95537.17;1721848;82;21055;-57
2021/10/29 00:36:34;;;;;;;118.05;59.05;;;;;;;1.47;77.44;95539.18;1727649;82;21034;-57
2021/10/29 00:39:01;;;;;;;100.62;53.28;;;;;;;1.35;77.54;95535.34;1727310;82;21144;-57
2021/10/29 00:41:28;;;;;;;109.75;56.98;;;;;;;1.24;77.77;95543.94;1732335;82;21446;-57
2021/10/29 00:43:57;;;;;;;128.68;56.48;;;;;;;1.19;78.02;95532.08;1735260;82;21010;-57
2021/10/29 00:46:24;;;;;;;129.90;59.35;;;;;;;1.21;78.31;95531.12;1729010;82;21066;-56
2021/10/29 00:48:53;;;;;;;101.05;51.85;;;;;;;1.25;78.37;95522.47;1733098;82;20896;-58
2021/10/29 00:51:21;;;;;;;112.42;53.58;;;;;;;1.25;78.23;95521.11;1726934;82;21144;-57
2021/10/29 00:53:48;;;;;;;100.72;52.50;;;;;;;1.22;78.26;95531.34;1732772;82;21010;-58
2021/10/29 00:56:16;;;;;;;93.80;47.20;;;;;;;1.19;78.17;95532.08;1704111;82;21062;-58
2021/10/29 00:58:43;;;;;;;104.83;50.28;;;;;;;1.18;78.34;95520.23;1719068;82;20970;-57
2021/10/29 01:01:09;;;;;;;118.28;55.80;;;;;;;1.15;78.29;95522.34;1715458;82;20999;-58
2021/10/29 01:03:38;;;;;;;117.30;57.60;;;;;;;1.10;78.39;95525.38;1696796;82;21138;-57
2021/10/29 01:06:06;;;;;;;124.82;57.90;;;;;;;1.08;78.60;95524.38;1725035;82;21041;-58
2021/10/29 01:08:37;;;;;;;107.87;54.18;;;;;;;1.13;78.98;95521.34;1731206;82;20964;-57
2021/10/29 01:11:04;;;;;;;112.25;54.30;;;;;;;1.25;78.95;95518.40;1729735;82;20955;-58
2021/10/29 01:13:32;;;;;;;108.30;54.05;;;;;;;1.29;78.34;95512.44;1721821;82;21029;-58
2021/10/29 01:15:59;;;;;;;112.42;55.90;;;;;;;1.29;78.08;95519.22;1732067;82;21123;-56
2021/10/29 01:18:25;;;;;;;108.35;50.28;;;;;;;1.33;77.99;95526.05;1723781;82;21152;-57
2021/10/29 01:20:54;;;;;;;101.15;51.08;;;;;;;1.33;77.79;95520.03;1724661;81;20986;-57
2021/10/29 01:23:21;;;;;;;104.35;54.65;;;;;;;1.30;77.71;95520.78;1730289;82;21459;-57
2021/10/29 01:25:47;;;;;;;110.15;60.58;;;;;;;1.32;77.83;95518.47;1729230;82;21511;-57
2021/10/29 01:28:15;;;;;;;104.97;54.73;;;;;;;1.36;77.65;95514.45;1725872;82;21154;-57
2021/10/29 01:30:42;;;;;;;115.20;57.38;;;;;;;1.32;77.32;95509.58;1713510;82;21010;-58
2021/10/29 01:33:10;;;;;;;115.37;60.17;;;;;;;1.23;77.41;95509.86;1715793;82;20993;-58
2021/10/29 01:35:37;;;;;;;111.40;59.63;;;;;;;1.22;77.66;95510.22;1702390;83;21027;-57
2021/10/29 01:38:04;;;;;;;114.60;61.15;;;;;;;1.21;77.72;95510.80;1738465;81;21480;-58
2021/10/29 01:40:30;;;;;;;112.95;61.37;;;;;;;1.21;77.64;95510.80;1723208;82;21161;-58
2021/10/29 01:42:58;;;;;;;111.47;59.40;;;;;;;1.17;77.60;95505.89;1723792;82;21128;-57
2021/10/29 01:45:24;;;;;;;112.50;62.48;;;;;;;1.11;77.60;95512.03;1728106;82;21054;-57
2021/10/29 01:47:54;;;;;;;113.68;59.65;;;;;;;1.05;77.60;95515.63;1728314;82;20955;-57
2021/10/29 01:50:22;;;;;;;107.55;56.58;;;;;;;0.99;77.62;95509.55;1726372;82;20982;-57
2021/10/29 01:52:48;;;;;;;105.37;53.98;;;;;;;0.91;77.77;95514.65;1729369;81;21918;-57
2021/10/29 01:55:15;;;;;;;111.90;54.67;;;;;;;0.87;77.88;95513.27;1720394;82;21557;-57
2021/10/29 01:57:42;;;;;;;113.37;59.85;;;;;;;0.89;77.96;95508.27;1710419;82;21451;-58
2021/10/29 02:00:10;;;;;;;96.40;50.85;;;;;;;0.93;77.94;95511.79;1728037;82;21452;-57
2021/10/29 02:02:41;;;;;;;89.35;49.98;;;;;;;0.94;78.00;95513.94;1717695;81;20986;-57
2021/10/29 02:05:08;;;;;;;93.35;48.87;;;;;;;0.93;77.95;95509.08;1728926;82;21137;-57
2021/10/29 02:07:38;;;;;;;86.57;46.48;;;;;;;0.96;78.24;95511.64;1726943;82;21031;-57
2021/10/29 02:10:07;;;;;;;121.95;61.23;;;;;;;0.98;78.09;95511.45;1731576;81;21489;-57
2021/10/29 02:12:34;;;;;;;110.08;59.05;;;;;;;0.98;77.91;95509.34;1731936;82;21443;-57
2021/10/29 02:15:03;;;;;;;96.50;51.25;;;;;;;0.97;77.87;95512.61;1735982;82;21447;-58
2021/10/29 02:17:31;;;;;;;99.83;51.05;;;;;;;0.94;77.78;95508.52;1715615;82;21439;-57
2021/10/29 02:19:59;;;;;;;105.58;52.62;;;;;;;0.93;77.91;95513.14;1739353;81;21600;-57
2021/10/29 02:22:27;;;;;;;115.90;56.68;;;;;;;0.97;78.09;95510.49;1732208;81;21218;-58
2021/10/29 02:24:54;;;;;;;106.30;53.05;;;;;;;1.05;77.97;95503.45;1722950;82;21861;-58
2021/10/29 02:27:21;;;;;;;93.67;48.83;;;;;;;1.11;77.75;95509.33;1711721;82;20986;-57
2021/10/29 02:29:48;;;;;;;86.80;45.35;;;;;;;1.10;77.39;95499.64;1724125;81;23198;-58
2021/10/29 02:32:15;;;;;;;97.02;49.60;;;;;;;1.08;77.33;95506.77;1718021;82;21525;-57
2021/10/29 02:34:42;;;;;;;90.00;46.50;;;;;;;1.04;77.33;95501.88;1719799;82;21050;-58
2021/10/29 02:37:09;;;;;;;83.58;45.58;;;;;;;1.04;77.26;95503.23;1714795;82;20998;-57
2021/10/29 02:39:36;;;;;;;118.77;53.70;;;;;;;1.03;77.07;95504.95;1727865;82;21062;-57
2021/10/29 02:42:05;;;;;;;181.65;89.80;;;;;;;1.05;77.12;95504.80;1726174;82;21049;-57
2021/10/29 02:44:32;;;;;;;145.60;68.30;;;;;;;1.10;77.04;95502.34;1733943;82;20955;-57
2021/10/29 02:46:59;;;;;;;163.72;81.75;;;;;;;1.18;76.96;95502.03;1729067;82;21439;-58
2021/10/29 02:49:26;;;;;;;159.78;83.50;;;;;;;1.25;76.70;95507.56;1736296;82;21011;-57
2021/10/29 02:51:53;;;;;;;256.77;120.10;;;;;;;1.32;76.43;95499.50;1711418;81;21005;-60
2021/10/29 02:54:22;;;;;;;153.95;76.28;;;;;;;1.38;76.41;95499.95;1701044;83;21159;-56
2021/10/29 02:56:53;;;;;;;145.32;70.95;;;;;;;1.45;76.18;95499.47;1723274;81;20954;-55
2021/10/29 02:59:24;;;;;;;133.35;68.50;;;;;;;1.56;76.48;95505.80;1725918;82;20974;-56
2021/10/29 03:01:54;;;;;;;87.33;47.62;;;;;;;1.72;75.74;95508.27;1693022;83;21030;-54
2021/10/29 03:04:22;;;;;;;89.87;46.35;;;;;;;1.75;75.14;95504.25;1677574;84;21622;-53
2021/10/29 03:06:52;;;;;;;81.57;40.90;;;;;;;1.68;74.70;95500.69;1734911;81;21103;-57
2021/10/29 03:09:19;;;;;;;94.80;46.33;;;;;;;1.57;74.66;95497.86;1732691;82;20956;-56
2021/10/29 03:11:47;;;;;;;84.13;45.35;;;;;;;1.48;74.83;95486.52;1725124;81;21010;-55
2021/10/29 03:14:14;;;;;;;90.05;46.60;;;;;;;1.53;75.15;95495.67;1716042;82;21073;-56
2021/10/29 03:16:41;;;;;;;147.78;69.53;;;;;;;1.59;74.73;95495.56;1734644;81;21015;-56
2021/10/29 03:19:09;;;;;;;243.67;111.32;;;;;;;1.65;74.49;95490.00;1688739;83;21135;-56
2021/10/29 03:21:35;;;;;;;212.97;99.13;;;;;;;1.73;74.37;95492.97;1694189;84;21490;-56
2021/10/29 03:24:02;;;;;;;226.15;102.15;;;;;;;1.80;73.87;95487.63;1683631;84;20975;-57
2021/10/29 03:26:29;;;;;;;166.10;81.90;;;;;;;1.82;73.41;95486.12;1734167;81;20963;-57
2021/10/29 03:28:56;;;;;;;171.62;82.37;;;;;;;1.86;73.56;95487.48;1732538;81;21121;-58
2021/10/29 03:31:22;;;;;;;184.50;89.10;;;;;;;1.93;73.58;95487.56;1716574;82;21142;-57
2021/10/29 03:33:50;;;;;;;98.70;48.20;;;;;;;1.99;73.40;95491.48;1727337;81;21008;-57
2021/10/29 03:36:17;;;;;;;98.87;43.25;;;;;;;2.02;72.96;95488.02;1734033;82;21050;-55
2021/10/29 03:41:14;;;;;;;113.95;44.20;;;;;;;1.71;72.64;95487.14;1721436;82;20962;-56
2021/10/29 03:43:48;;;;;;;93.17;41.77;;;;;;;1.59;72.58;95488.78;1731978;82;21177;-57
2021/10/29 03:46:21;;;;;;;105.30;45.65;;;;;;;1.49;72.86;95475.11;1726529;82;21120;-57
2021/10/29 03:48:55;;;;;;;80.53;40.40;;;;;;;1.43;72.90;95474.66;1723144;81;21049;-57
2021/10/29 03:51:21;;;;;;;107.05;51.58;;;;;;;1.42;72.88;95477.73;1725756;82;21035;-57
2021/10/29 03:56:16;;;;;;;152.80;77.42;;;;;;;1.41;72.87;95472.90;1698426;83;21075;-56
2021/10/29 03:58:38;;;;;;;117.82;57.98;;;;;;;1.38;72.97;95474.20;1714597;82;21482;-57
2021/10/29 04:01:06;;;;;;;181.07;85.12;;;;;;;1.45;73.21;95473.71;1695901;83;21452;-57
2021/10/29 04:03:33;;;;;;;134.80;65.95;;;;;;;1.54;72.89;95482.91;1705614;82;21093;-57
2021/10/29 04:06:01;;;;;;;133.30;66.22;;;;;;;1.53;72.71;95478.64;1738020;82;21013;-58
2021/10/29 04:08:28;;;;;;;143.45;71.45;;;;;;;1.55;72.71;95476.33;1722173;81;21141;-57
2021/10/29 04:10:58;;;;;;;120.40;59.65;;;;;;;1.58;72.48;95468.23;1733629;82;21485;-59
2021/10/29 04:13:33;;;;;;;142.85;69.17;;;;;;;1.62;72.21;95483.97;1734576;82;21042;-57
2021/10/29 04:15:57;;;;;;;158.50;73.85;;;;;;;1.63;72.55;95473.32;1733862;82;21050;-58
2021/10/29 04:18:26;;;;;;;139.15;63.73;;;;;;;1.71;72.41;95480.95;1707846;82;21037;-57
2021/10/29 04:20:53;;;;;;;98.27;47.83;;;;;;;1.71;72.22;95481.72;1729218;82;21514;-57
2021/10/29 04:23:20;;;;;;;96.50;46.23;;;;;;;1.59;71.88;95480.64;1729047;82;20960;-57
2021/10/29 04:25:46;;;;;;;82.37;42.67;;;;;;;1.44;72.19;95483.00;1721723;82;21466;-58
2021/10/29 04:28:13;;;;;;;93.82;43.85;;;;;;;1.38;72.18;95478.27;1696884;83;21011;-57
2021/10/29 04:30:44;;;;;;;95.62;41.77;;;;;;;1.36;72.35;95478.63;1710705;82;20978;-57
2021/10/29 04:33:12;;;;;;;85.62;42.08;;;;;;;1.38;72.31;95478.27;1710654;82;21829;-57
2021/10/29 04:35:43;;;;;;;111.00;46.85;;;;;;;1.40;72.35;95478.12;1688468;83;21070;-57
2021/10/29 04:38:11;;;;;;;113.00;48.15;;;;;;;1.47;72.50;95476.83;1690026;84;21164;-57
2021/10/29 04:40:39;;;;;;;91.05;41.83;;;;;;;1.60;72.53;95474.07;1722263;82;21035;-57
2021/10/29 04:43:07;;;;;;;107.52;46.10;;;;;;;1.69;71.85;95477.84;1734131;82;20958;-57
2021/10/29 04:45:34;;;;;;;99.97;48.42;;;;;;;1.69;71.65;95481.91;1725627;82;21800;-57
2021/10/29 04:48:01;;;;;;;92.78;42.00;;;;;;;1.61;71.59;95474.83;1735514;82;21030;-57
2021/10/29 04:50:28;;;;;;;87.20;39.75;;;;;;;1.49;71.63;95481.30;1707991;82;21474;-57
2021/10/29 04:52:55;;;;;;;67.08;32.05;;;;;;;1.37;71.73;95479.42;1697566;83;21109;-58
2021/10/29 04:55:23;;;;;;;76.40;39.40;;;;;;;1.24;71.84;95474.84;1693310;82;21191;-58
2021/10/29 04:57:50;;;;;;;80.97;41.73;;;;;;;1.08;72.02;95478.32;1729408;81;21136;-59
2021/10/29 05:00:19;;;;;;;79.55;38.73;;;;;;;0.99;72.64;95476.45;1709583;81;21490;-59
2021/10/29 05:02:46;;;;;;;77.27;39.08;;;;;;;1.00;72.80;95473.19;1710927;82;21029;-58
2021/10/29 05:05:14;;;;;;;69.95;36.35;;;;;;;0.96;72.90;95470.42;1718194;82;20998;-56
2021/10/29 05:07:41;;;;;;;99.42;41.50;;;;;;;0.97;72.96;95477.98;1715550;82;20990;-57
2021/10/29 05:10:09;;;;;;;94.87;52.55;;;;;;;0.95;73.09;95481.05;1689576;84;21022;-58
2021/10/29 05:12:36;;;;;;;117.33;54.83;;;;;;;0.95;73.16;95482.41;1735088;82;20987;-58
2021/10/29 05:15:05;;;;;;;104.70;54.30;;;;;;;0.98;73.15;95476.25;1684238;83;21057;-57
2021/10/29 05:17:32;;;;;;;105.30;55.90;;;;;;;1.00;73.00;95481.31;1733710;81;21470;-57
2021/10/29 05:19:59;;;;;;;105.20;52.33;;;;;;;0.95;72.92;95479.70;1705491;82;21073;-60
2021/10/29 05:22:26;;;;;;;98.62;54.33;;;;;;;0.90;72.98;95479.23;1679601;83;21133;-57
2021/10/29 05:24:52;;;;;;;115.47;56.48;;;;;;;0.86;73.49;95483.27;1709082;81;21123;-58
2021/10/29 05:27:24;;;;;;;118.35;53.65;;;;;;;0.95;73.53;95488.41;1710541;82;21041;-57
2021/10/29 05:29:51;;;;;;;107.47;53.30;;;;;;;1.03;73.49;95491.41;1719205;82;21078;-57
2021/10/29 05:32:18;;;;;;;106.27;54.75;;;;;;;1.09;73.15;95486.66;1698075;82;21079;-60
2021/10/29 05:34:45;;;;;;;104.20;60.48;;;;;;;1.13;73.11;95488.82;1713569;82;21174;-57
2021/10/29 05:37:12;;;;;;;136.35;64.30;;;;;;;1.18;73.02;95491.79;1700794;82;21069;-58
2021/10/29 05:39:39;;;;;;;140.65;67.85;;;;;;;1.20;72.97;95495.70;1706780;82;21059;-58
2021/10/29 05:42:06;;;;;;;145.28;69.60;;;;;;;1.17;73.00;95493.70;1705225;82;21148;-60
2021/10/29 05:44:34;;;;;;;142.65;70.40;;;;;;;1.18;73.06;95488.48;1713998;82;21120;-58
2021/10/29 05:47:02;;;;;;;134.65;62.75;;;;;;;1.18;72.78;95491.20;1704870;81;21621;-66
2021/10/29 05:49:30;;;;;;;150.50;76.00;;;;;;;1.10;72.82;95490.16;1736365;81;20951;-61
2021/10/29 05:51:57;;;;;;;137.92;64.60;;;;;;;1.04;72.94;95501.88;1737426;81;21626;-58
2021/10/29 05:57:03;;;;;;;160.12;72.82;;;;;;;1.03;73.25;95494.11;1658493;85;21099;-60
2021/10/29 05:59:34;;;;;;;169.72;76.70;;;;;;;1.05;73.32;95495.31;1698252;83;21166;-59
2021/10/29 06:01:59;;;;;;;185.32;81.80;;;;;;;1.10;73.69;95496.34;1709663;82;21067;-59
2021/10/29 06:04:26;;;;;;;154.40;73.62;;;;;;;1.25;73.64;95498.63;1710175;82;21207;-64
2021/10/29 06:06:55;;;;;;;172.85;80.22;;;;;;;1.35;73.52;95506.89;1700016;81;21044;-67
2021/10/29 06:09:25;;;;;;;181.72;86.05;;;;;;;1.38;73.69;95502.11;1689396;83;21143;-58
2021/10/29 06:11:52;;;;;;;169.93;85.25;;;;;;;1.48;73.72;95494.66;1689970;82;21155;-58
2021/10/29 06:14:19;;;;;;;194.82;91.25;;;;;;;1.57;73.86;95497.86;1667127;82;22308;-59
2021/10/29 06:16:46;;;;;;;168.52;88.00;;;;;;;1.68;74.07;95501.45;1685018;81;21077;-58
2021/10/29 06:19:13;;;;;;;182.43;90.70;;;;;;;1.79;73.92;95502.34;1681494;82;21059;-62
2021/10/29 06:21:52;;;;;;;149.35;80.10;;;;;;;1.85;73.95;95508.98;1719566;81;21473;-61
2021/10/29 06:24:14;;;;;;;107.80;58.20;;;;;;;1.96;74.30;95505.80;1714030;81;21226;-57
2021/10/29 06:26:54;;;;;;;98.45;56.80;;;;;;;2.08;74.24;95510.38;1695075;82;20966;-61
2021/10/29 06:29:08;;;;;;;127.50;68.57;;;;;;;2.16;74.50;95508.50;1697720;82;21029;-60
2021/10/29 06:31:36;;;;;;;110.08;60.12;;;;;;;2.21;74.74;95504.08;1700600;82;21057;-60
2021/10/29 06:34:02;;;;;;;115.52;60.80;;;;;;;2.35;75.02;95501.48;1682851;83;21563;-61
2021/10/29 06:36:29;;;;;;;146.75;73.95;;;;;;;2.51;74.98;95496.56;1706840;81;21033;-59
2021/10/29 06:38:58;;;;;;;174.80;81.45;;;;;;;2.72;75.24;95499.42;1720133;81;21074;-59
2021/10/29 06:41:25;;;;;;;131.25;61.70;;;;;;;2.98;75.15;95500.53;1727131;81;21083;-57
2021/10/29 06:47:09;;;;;;;177.55;78.15;;;;;;;3.39;74.09;95499.96;1724507;81;21132;-59
2021/10/29 06:51:56;;;;;;;173.82;78.80;;;;;;;3.48;73.98;95503.87;1717189;81;22441;-62
2021/10/29 06:59:52;;;;;;;84.95;45.15;;;;;;;3.65;73.97;95499.08;1700132;81;21198;-61
2021/10/29 07:02:44;;;;;;;89.67;44.35;;;;;;;3.74;73.85;95495.42;1700533;81;21159;-64
2021/10/29 07:40:26;;;;;;;61.45;30.75;;;;;;;5.85;72.01;95475.63;1689867;82;21129;-61
2021/10/29 07:43:03;;;;;;;53.52;28.77;;;;;;;6.14;71.64;95473.50;1697722;81;21123;-57
2021/10/29 07:45:28;;;;;;;45.80;27.27;;;;;;;6.41;71.10;95464.89;1696440;81;21085;-59
2021/10/29 07:47:55;;;;;;;53.10;28.00;;;;;;;6.69;70.70;95467.40;1710562;81;21053;-59
2021/10/29 07:50:24;;;;;;;52.45;27.93;;;;;;;6.90;70.24;95476.77;1671340;81;21048;-58
2021/10/29 07:52:53;;;;;;;28.57;21.20;;;;;;;7.11;69.61;95467.16;1663586;81;21136;-59
2021/10/29 07:55:22;;;;;;;32.00;20.30;;;;;;;7.39;68.95;95466.85;1713356;81;21133;-61
2021/10/29 07:57:50;;;;;;;33.48;21.87;;;;;;;7.61;68.17;95465.41;1701359;82;21439;-59
2021/10/29 08:00:20;;;;;;;40.45;21.45;;;;;;;7.75;67.43;95467.17;1715119;81;21185;-61
2021/10/29 08:02:50;;;;;;;31.35;19.17;;;;;;;7.84;67.34;95461.38;1707623;81;21062;-60
2021/10/29 08:05:18;;;;;;;46.75;24.32;;;;;;;7.94;67.48;95457.73;1722572;81;21591;-57
2021/10/29 08:07:44;;;;;;;52.60;21.75;;;;;;;7.98;67.31;95454.34;1704319;81;21553;-62
2021/10/29 08:10:13;;;;;;;33.78;20.35;;;;;;;8.04;67.11;95450.55;1722664;82;21632;-59
2021/10/29 08:12:41;;;;;;;33.45;17.90;;;;;;;8.11;67.03;95448.45;1681693;81;21594;-58
2021/10/29 08:15:09;;;;;;;26.62;15.75;;;;;;;8.27;66.33;95440.41;1657228;82;21097;-60
2021/10/29 08:17:36;;;;;;;36.77;16.65;;;;;;;8.41;65.88;95441.56;1672314;82;21070;-60
2021/10/29 08:20:05;;;;;;;35.13;18.65;;;;;;;8.58;65.43;95443.24;1675563;83;21159;-63
2021/10/29 08:22:35;;;;;;;34.75;19.62;;;;;;;8.71;64.97;95440.09;1717561;81;21648;-59
2021/10/29 08:25:04;;;;;;;28.80;17.10;;;;;;;8.91;64.43;95438.17;1719394;81;20971;-60
2021/10/29 08:27:31;;;;;;;31.20;16.00;;;;;;;9.19;63.97;95434.89;1714205;81;21068;-62
2021/10/29 08:29:58;;;;;;;28.77;15.80;;;;;;;9.41;62.91;95426.44;1711499;82;21035;-61
2021/10/29 08:32:25;;;;;;;31.33;15.45;;;;;;;9.61;62.26;95419.71;1713486;81;21186;-64
2021/10/29 08:34:52;;;;;;;33.63;17.55;;;;;;;9.81;61.60;95420.45;1709515;81;21453;-63
2021/10/29 08:37:20;;;;;;;29.15;16.27;;;;;;;9.93;61.23;95414.31;1718959;81;21096;-58
2021/10/29 08:39:48;;;;;;;31.87;15.68;;;;;;;10.06;60.94;95411.11;1710584;81;21115;-59
2021/10/29 08:42:15;;;;;;;31.10;15.80;;;;;;;10.25;60.52;95410.86;1713736;81;21070;-61
2021/10/29 08:44:41;;;;;;;31.05;16.35;;;;;;;10.36;60.21;95402.53;1713826;81;21131;-58
2021/10/29 08:47:08;;;;;;;27.17;15.93;;;;;;;10.55;59.96;95398.91;1721928;81;21076;-60
2021/10/29 08:49:36;;;;;;;24.87;14.35;;;;;;;10.81;59.43;95404.13;1727403;81;21010;-58
2021/10/29 08:52:04;;;;;;;28.38;16.62;;;;;;;11.11;59.06;95400.20;1701688;81;21060;-61
2021/10/29 08:54:32;;;;;;;31.55;16.93;;;;;;;11.43;57.81;95402.27;1703994;81;21168;-60
2021/10/29 08:57:00;;;;;;;22.20;15.40;;;;;;;11.78;56.90;95394.98;1721726;81;21299;-59
2021/10/29 08:59:35;;;;;;;28.10;16.32;;;;;;;12.02;56.07;95394.24;1681548;82;21033;-57
2021/10/29 09:02:10;;;;;;;29.45;16.55;;;;;;;12.21;55.75;95392.47;1720904;81;21073;-64
2021/10/29 09:33:08;;;;;;;25.37;13.13;;;;;;;14.04;51.18;95353.84;1659846;83;21105;-58
2021/10/29 09:35:16;;;;;;;19.50;11.50;;;;;;;14.21;50.79;95352.41;1686615;82;20991;-70
2021/10/29 09:38:04;;;;;;;22.58;12.60;;;;;;;14.46;50.46;95355.09;1651027;83;21482;-59
2021/10/29 09:41:02;;;;;;;18.77;9.58;;;;;;;14.76;49.71;95351.48;1720001;81;21545;-59
2021/10/29 09:43:32;;;;;;;16.37;9.50;;;;;;;15.19;48.58;95345.66;1715083;82;21119;-63
2021/10/29 09:46:03;;;;;;;18.07;9.93;;;;;;;15.57;47.63;95339.04;1695225;83;21786;-59
2021/10/29 09:48:49;;;;;;;16.02;10.32;;;;;;;15.87;46.76;95333.14;1706266;81;21509;-60
2021/10/29 09:51:16;;;;;;;13.55;9.30;;;;;;;16.26;45.78;95334.85;1707877;81;21106;-58
2021/10/29 09:54:02;;;;;;;22.45;11.55;;;;;;;16.70;44.26;95328.33;1707387;81;21566;-60
2021/10/29 09:58:51;;;;;;;31.90;15.15;;;;;;;17.75;42.22;95329.19;1704459;81;20200;-63
2021/10/29 10:01:25;;;;;;;35.45;17.37;;;;;;;18.22;40.63;95318.61;1687849;82;21093;-57
2021/10/29 10:03:53;;;;;;;39.13;20.23;;;;;;;18.53;40.23;95316.08;1701085;82;21426;-58
2021/10/29 10:06:24;;;;;;;36.05;17.12;;;;;;;18.87;39.78;95309.69;1691845;82;21036;-59
2021/10/29 10:08:56;;;;;;;33.58;16.17;;;;;;;19.20;39.14;95304.56;1704637;82;22360;-57
2021/10/29 10:11:25;;;;;;;;;;;;;;;19.71;38.22;95300.44;1682417;82;21005;-56
2021/10/29 10:13:54;;;;;;;26.60;10.55;;;;;;;20.30;37.23;95300.09;1695457;82;20432;-64
2021/10/29 10:16:22;;;;;;;20.88;10.55;;;;;;;20.73;36.64;95294.05;1696922;82;21129;-59
2021/10/29 10:18:49;;;;;;;19.05;11.05;;;;;;;21.32;35.71;95296.91;1696712;82;21041;-58
2021/10/29 10:21:20;;;;;;;18.67;9.25;;;;;;;21.92;34.94;95295.70;1690813;81;21079;-64
2021/10/29 10:23:49;;;;;;;14.30;9.20;;;;;;;22.27;33.79;95287.56;1727504;81;21534;-58
2021/10/29 10:26:24;;;;;;;21.73;8.40;;;;;;;22.60;33.30;95288.95;1691265;82;21101;-57
2021/10/29 10:46:04;;;;;;;26.40;14.90;;;;;;;26.49;27.60;95265.84;1679977;82;21064;-59
2021/10/29 10:48:32;;;;;;;23.95;14.38;;;;;;;26.95;27.03;95264.52;1705727;83;21067;-58
2021/10/29 10:54:42;;;;;;;25.52;16.40;;;;;;;27.57;25.96;95252.25;1700662;82;21048;-59
2021/10/29 11:11:03;;;;;;;12.43;9.45;;;;;;;28.62;24.74;95238.61;1682571;84;21164;-60
2021/10/29 11:13:56;;;;;;;12.90;7.67;;;;;;;28.86;24.42;95234.64;1656241;85;21094;-59
2021/10/29 11:16:35;;;;;;;13.30;8.18;;;;;;;29.06;24.01;95228.20;1663179;84;21157;-58
2021/10/29 11:19:17;;;;;;;11.12;8.60;;;;;;;29.18;23.78;95230.19;1678189;84;21073;-59
2021/10/29 11:21:52;;;;;;;10.23;6.90;;;;;;;29.22;23.78;95230.59;1707837;82;21546;-58
2021/10/29 11:24:40;;;;;;;13.55;8.93;;;;;;;29.57;23.47;95220.58;1716598;81;21143;-58
2021/10/29 11:27:16;;;;;;;16.73;9.18;;;;;;;29.84;23.05;95217.58;1700566;82;21070;-60
2021/10/29 11:29:50;;;;;;;13.20;7.03;;;;;;;29.94;22.74;95215.06;1703007;82;21005;-58
2021/10/29 11:32:20;;;;;;;11.70;7.50;;;;;;;30.08;22.42;95210.10;1708789;81;21050;-60
2021/10/29 11:34:49;;;;;;;13.10;7.08;;;;;;;30.15;22.32;95205.09;1711642;82;21612;-60
2021/10/29 11:37:16;;;;;;;15.08;8.50;;;;;;;30.42;21.90;95203.44;1714232;82;21169;-65
2021/10/29 11:39:43;;;;;;;14.93;8.93;;;;;;;30.49;22.03;95201.25;1685794;82;20978;-59
2021/10/29 11:42:10;;;;;;;20.60;12.47;;;;;;;30.80;21.52;95198.55;1692739;81;21089;-58
2021/10/29 11:44:38;;;;;;;32.93;17.15;;;;;;;31.06;21.36;95199.54;1696473;83;21232;-62
2021/10/29 11:47:06;;;;;;;23.95;13.85;;;;;;;31.28;21.16;95192.33;1670789;82;21007;-63
2021/10/29 11:49:34;;;;;;;19.87;12.25;;;;;;;31.48;21.11;95190.66;1699622;81;22319;-62
2021/10/29 11:52:03;;;;;;;19.12;10.55;;;;;;;31.80;21.75;95191.41;1688737;83;21056;-61
2021/10/29 11:54:34;;;;;;;22.85;10.85;;;;;;;32.19;21.05;95187.89;1713347;82;21033;-60
2021/10/29 12:07:33;;;;;;;22.40;8.75;;;;;;;33.45;19.99;95185.20;1711370;81;21596;-55
2021/10/29 12:10:07;;;;;;;11.35;7.08;;;;;;;33.71;19.21;95178.85;1697040;82;21013;-56
2021/10/29 12:12:40;;;;;;;23.22;8.45;;;;;;;33.76;18.47;95177.83;1715599;82;21545;-57
2021/10/29 12:15:15;;;;;;;12.85;6.05;;;;;;;33.36;18.80;95178.76;1699022;82;21138;-56
2021/10/29 12:17:57;;;;;;;9.53;6.05;;;;;;;33.29;18.59;95173.90;1698320;82;21018;-58
2021/10/29 12:20:30;;;;;;;17.82;8.05;;;;;;;33.26;18.66;95166.48;1698299;82;21011;-56
2021/10/29 12:23:13;;;;;;;11.85;7.05;;;;;;;33.34;18.82;95158.62;1686354;82;21584;-57
2021/10/29 12:25:44;;;;;;;10.23;6.05;;;;;;;33.52;18.49;95157.27;1692837;82;21054;-58
2021/10/29 12:28:14;;;;;;;14.18;6.28;;;;;;;33.58;18.43;95159.18;1669726;85;21170;-62
2021/10/29 12:30:46;;;;;;;14.28;8.05;;;;;;;33.60;18.02;95157.91;1696816;82;21113;-59
2021/10/29 13:04:00;;;;;;;32.83;12.50;;;;;;;32.75;18.94;95127.25;1706548;82;21080;-56
2021/10/29 13:06:33;;;;;;;23.25;12.85;;;;;;;32.98;19.06;95124.18;1673863;82;21168;-59
2021/10/29 13:09:02;;;;;;;23.73;13.65;;;;;;;33.19;18.67;95123.89;1678793;84;21150;-57
2021/10/29 13:11:35;;;;;;;30.50;16.17;;;;;;;33.37;18.42;95128.91;1658021;84;21056;-61
2021/10/29 13:14:05;;;;;;;17.55;10.93;;;;;;;33.53;18.38;95126.69;1682037;82;21071;-61
2021/10/29 13:16:32;;;;;;;31.07;14.68;;;;;;;33.58;17.65;95127.78;1728400;82;21018;-58
2021/10/29 13:22:37;;;;;;;19.25;11.78;;;;;;;33.05;18.51;95133.31;1698070;82;21290;-61
2021/10/29 13:24:39;;;;;;;25.60;11.43;;;;;;;32.87;18.41;95131.13;1697955;82;21052;-57
2021/10/29 13:34:57;;;;;;;14.75;10.60;;;;;;;31.84;20.04;95127.06;1675015;83;21175;-61
2021/10/29 13:37:44;;;;;;;24.72;16.55;;;;;;;31.53;20.69;95129.17;1710938;82;21629;-58
2021/10/29 13:51:05;;;;;;;18.32;9.08;;;;;;;30.37;21.28;95124.87;1695569;82;21510;-58
2021/10/29 13:56:45;;;;;;;22.20;12.20;;;;;;;29.86;22.03;95124.13;1682091;83;21086;-59
2021/10/29 14:37:15;;;;;;;41.13;16.62;;;;;;;25.57;27.62;95132.69;1655119;83;21052;-59
2021/10/29 14:39:52;;;;;;;22.75;14.60;;;;;;;25.05;28.33;95136.61;1662283;84;20903;-59
2021/10/29 14:47:38;;;;;;;39.65;15.88;;;;;;;22.22;31.83;95137.70;1693289;83;21058;-58
2021/10/29 14:52:53;;;;;;;;;;;;;;;;;;;;;
2021/10/29 15:05:48;;;;;;;92.20;51.18;;;;;;;17.39;40.74;95142.38;1701160;83;21081;-58
2021/10/29 15:16:28;;;;;;;154.00;72.90;;;;;;;15.68;45.29;95152.09;1692003;83;21084;-58
2021/10/29 15:29:25;;;;;;;525.63;278.77;;;;;;;13.98;49.48;95162.77;1675714;83;20984;-56
2021/10/29 15:45:34;;;;;;;413.87;188.82;;;;;;;12.54;53.35;95171.00;1667516;84;21085;-56
2021/10/29 15:48:17;;;;;;;473.95;225.28;;;;;;;12.34;53.83;95169.75;1684210;83;22322;-59
2021/10/29 15:50:40;;;;;;;438.50;213.15;;;;;;;12.17;54.34;95175.28;1697092;83;21560;-59
2021/10/29 15:53:13;;;;;;;362.72;164.62;;;;;;;11.99;54.87;95182.01;1675198;83;21735;-59
2021/10/29 15:55:42;;;;;;;380.00;177.55;;;;;;;11.81;55.00;95182.61;1691688;83;21163;-57
2021/10/29 15:58:32;;;;;;;382.87;178.93;;;;;;;11.66;55.77;95182.91;1675065;83;21000;-57
2021/10/29 16:01:05;;;;;;;377.68;174.50;;;;;;;11.53;56.08;95182.73;1690253;82;21053;-56
2021/10/29 16:03:52;;;;;;;418.27;194.50;;;;;;;11.34;56.39;95185.87;1696136;82;21112;-57
2021/10/29 16:17:03;;;;;;;388.32;181.70;;;;;;;11.00;57.75;95187.73;1703831;83;20972;-58